Hlavní strana
METAR-TAF:

METAR-TAF

Letiště :

Mitiga International Airport

Tripolis, Libye

zeměpisná šířka: 32-54N, zeměpisná délka: 13-17E, výška: 11 m

Aktuální stav počasí

Zpráva byla vytvořena před 36 minutami, v 17:50 UTC
Východoseverovýchodní vítr 7 kt
Teplota 28°C
Vlhkost vzduchu 74%
Tlak 1014 hPa
Viditelnost: 7000 m
Skoro jasno ve výšce 1200 ft

METAR: HLLM 201750Z 06007KT 7000 FEW012 28/23 Q1014

Čas: 20:26 (18:26 UTC)

Předpověď počasí

Zpráva byla vytvořena před 1 hodinou a 26 minutami, v 17:00 UTC
Předpověď platná od 20 v 18 UTC do 21 v 18 UTC
vítr z různých směrů 2 kt
Viditelnost 10 km a více
Žádná oblačnost pod 1500 m, nevyskytují se cumulonimby.

TAF: HLLM 201700Z 2018/2118 VRB02KT CAVOK

Stav a předpovědi počasí z více než 4 000 letišť (zprávy METAR a TAF).

Červené a žluté tečky na mapě představují dostupné meteorologické stanice.

Když kurzor umístíte na tečku, zobrazí se název stanice.

Pak kliknutím zobrazíte stav a předpověď počasí.

Chcete-li změnit mapu, kliknutím na zelené tlačítko se znaménkem +mapu přiblížíte, kliknutím na zelené tlačítko se znaménkem – mapu oddálíte a kliknutím na zelené šipky přejdete na sousední mapy.


METAR-TAF: